Observations for EAST MIDLANDS, United Kingdom (EGNX)

EGNX 261920Z 05013KT CAVOK 17/08 Q1021  
EGNX 261850Z 05015KT CAVOK 17/09 Q1021  
EGNX 261820Z 05017KT CAVOK 18/09 Q1021  
EGNX 261750Z 05017KT CAVOK 18/09 Q1021  
EGNX 261720Z 06017KT CAVOK 19/09 Q1021  
EGNX 261650Z 05018KT CAVOK 20/09 Q1021  
EGNX 261620Z 06017KT CAVOK 20/09 Q1021  
EGNX 261550Z 06015KT CAVOK 20/12 Q1021  
EGNX 261520Z 06016KT CAVOK 20/13 Q1021  
EGNX 261450Z 05015KT CAVOK 21/14 Q1021  
EGNX 261420Z 05014KT CAVOK 20/14 Q1022  
EGNX 261350Z 05013KT CAVOK 20/15 Q1022  
EGNX 261320Z 06012KT CAVOK 19/15 Q1022  
EGNX 261250Z 05012KT CAVOK 19/15 Q1022  
EGNX 261220Z 06012KT CAVOK 18/14 Q1022  
EGNX 261150Z 05011KT 020V090 9999 FEW020 18/13 Q1022
EGNX 261050Z 04009KT 340V070 CAVOK 17/13 Q1022  
EGNX 261020Z 04011KT 010V090 9999 BKN048 16/13 Q1022
EGNX 260950Z 04010KT 010V080 9999 FEW013 BKN048 16/13 Q1022 
EGNX 260850Z VRB07KT 8000 SCT009 15/13 Q1022
EGNX 260820Z VRB06KT 8000 BKN009 14/12 Q1022
EGNX 260750Z 03007KT 360V090 7000 BKN008 13/12 Q1022
EGNX 260720Z 03007KT 330V090 7000 FEW007 BKN009 13/12 Q1022 
EGNX 260650Z 03007KT 7000 SCT008 BKN011 12/12 Q1022 
EGNX 260620Z 04007KT 010V090 7000 BKN007 12/12 Q1022
EGNX 260520Z 03008KT 310V090 4000 BR OVC004 12/12 Q1022 
EGNX 260450Z VRB07KT 4000 BR OVC004 12/12 Q1022 
EGNX 260420Z VRB07KT 4000 BR OVC004 12/12 Q1022 
EGNX 260350Z VRB07KT 3600 BR OVC004 12/12 Q1021 
EGNX 260320Z 03007KT 350V080 2600 BR OVC004 12/12 Q1022 
EGNX 260250Z 03008KT 350V080 2500 BR OVC003 12/12 Q1022 
EGNX 260220Z VRB06KT 1500 BR OVC002 12/12 Q1022 
EGNX 260150Z VRB05KT 1100 R27/P1500 BR OVC001 12/12 Q1022   
EGNX 260120Z 03007KT 330V090 0600 R27/P1500 FG OVC001 12/12 Q1022   
EGNX 260050Z 04007KT 350V150 0600 R27/P1500 FG OVC001 12/12 Q1022   
EGNX 260020Z 04006KT 010V080 0900 R27/1300 FG OVC001 12/12 Q1022
EGNX 252350Z 05008KT 010V080 0900 R27/P1500 FG OVC002 12/12 Q1022   
EGNX 252320Z 04007KT 340V090 1500 BR OVC003 12/12 Q1021 
EGNX 252250Z 03006KT 300V080 1500 BR OVC002 12/12 Q1021 
EGNX 252220Z 04007KT 360V080 0800 R27/P1500 FG OVC002 13/13 Q1021   
EGNX 252150Z 04008KT 350V070 1200 R27/P1500 BR OVC002 13/13 Q1021   
EGNX 252120Z VRB05KT 0900 R27/P1500 FG OVC002 13/13 Q1021   
EGNX 252050Z VRB05KT 0550 R27/P1500 FG OVC001 13/13 Q1021   
EGNX 252020Z VRB06KT 0450 R27/1300 FG OVC001 13/13 Q1020
EGNX 251950Z VRB05KT 0600 R27/P1500 FG OVC001 13/13 Q1020   
EGNX 251920Z 03006KT 310V120 0900 R27/1500 FG FEW001 OVC002 13/13 Q1020 
EGNX 251850Z VRB05KT 1300 R27/P1500 BR OVC002 13/13 Q1020